createdAt,value
2018-11-27T00:00:11.053Z,1.90
2018-11-27T00:02:41.536Z,1.27
2018-11-27T00:05:11.725Z,1.37
2018-11-27T00:08:00.829Z,1.20
2018-11-27T00:10:32.196Z,1.23
2018-11-27T00:13:02.518Z,1.27
2018-11-27T00:15:32.851Z,1.20
2018-11-27T00:18:03.148Z,2.37
2018-11-27T00:20:33.349Z,2.70
2018-11-27T00:23:03.592Z,3.10
2018-11-27T00:25:34.861Z,4.03
2018-11-27T00:28:05.238Z,4.00
2018-11-27T00:30:35.517Z,3.73
2018-11-27T00:33:05.919Z,3.83
2018-11-27T00:35:36.185Z,3.23
2018-11-27T00:38:06.393Z,2.20
2018-11-27T00:40:36.725Z,1.80
2018-11-27T00:43:07.049Z,2.47
2018-11-27T00:45:37.523Z,2.00
2018-11-27T00:48:07.744Z,1.63
2018-11-27T00:50:38.125Z,2.10
2018-11-27T00:53:08.191Z,1.60
2018-11-27T00:55:38.553Z,1.70
2018-11-27T00:58:08.751Z,1.70
2018-11-27T01:00:39.061Z,1.50
2018-11-27T01:03:09.432Z,1.37
2018-11-27T01:05:39.748Z,1.70
2018-11-27T01:08:09.949Z,1.73
2018-11-27T01:10:40.244Z,1.70
2018-11-27T01:13:10.557Z,1.60
2018-11-27T01:15:40.698Z,1.70
2018-11-27T01:18:11.662Z,1.60
2018-11-27T01:20:41.920Z,1.73
2018-11-27T01:23:13.122Z,1.70
2018-11-27T01:25:43.328Z,1.57
2018-11-27T01:28:13.626Z,1.50
2018-11-27T01:30:44.066Z,1.80
2018-11-27T01:33:14.387Z,1.77
2018-11-27T01:35:44.756Z,2.13
2018-11-27T01:38:15.540Z,2.40
2018-11-27T01:40:46.202Z,3.03
2018-11-27T01:43:16.517Z,3.00
2018-11-27T01:45:47.386Z,2.50
2018-11-27T01:48:17.664Z,2.37
2018-11-27T01:50:47.848Z,2.60
2018-11-27T01:53:18.197Z,2.30
2018-11-27T01:55:48.284Z,2.20
2018-11-27T01:58:18.681Z,2.30
2018-11-27T02:00:49.579Z,2.07
2018-11-27T02:03:19.842Z,2.20
2018-11-27T02:05:50.131Z,1.77
2018-11-27T02:08:20.578Z,1.80
2018-11-27T02:10:50.812Z,2.17
2018-11-27T02:13:21.263Z,2.17
2018-11-27T02:15:51.627Z,3.10
2018-11-27T02:18:21.909Z,3.07
2018-11-27T02:20:52.272Z,3.90
2018-11-27T02:23:22.599Z,5.43
2018-11-27T02:25:52.684Z,5.23
2018-11-27T02:28:22.972Z,3.40
2018-11-27T02:30:54.285Z,4.03
2018-11-27T02:33:24.878Z,5.07
2018-11-27T02:35:55.212Z,5.30
2018-11-27T02:38:25.582Z,5.90
2018-11-27T02:40:55.724Z,6.37
2018-11-27T02:43:26.143Z,6.80
2018-11-27T02:45:56.348Z,11.23
2018-11-27T02:48:26.657Z,11.30
2018-11-27T02:50:56.974Z,10.53
2018-11-27T02:53:27.225Z,8.23
2018-11-27T02:55:57.951Z,8.37
2018-11-27T02:58:29.401Z,8.50
2018-11-27T03:00:59.696Z,9.03
2018-11-27T03:03:30.160Z,9.20
2018-11-27T03:06:00.398Z,7.70
2018-11-27T03:08:30.796Z,7.20
2018-11-27T03:11:01.054Z,6.80
2018-11-27T03:13:31.369Z,6.60
2018-11-27T03:16:01.718Z,7.73
2018-11-27T03:18:32.078Z,7.20
2018-11-27T03:21:03.028Z,6.93
2018-11-27T03:23:33.338Z,7.30
2018-11-27T03:26:03.697Z,6.13
2018-11-27T03:28:33.935Z,6.27
2018-11-27T03:31:04.415Z,6.57
2018-11-27T03:33:34.702Z,6.07
2018-11-27T03:36:05.095Z,6.60
2018-11-27T03:38:35.452Z,5.20
2018-11-27T03:41:06.484Z,6.40
2018-11-27T03:43:36.689Z,5.77
2018-11-27T03:46:07.422Z,5.27
2018-11-27T03:48:37.873Z,4.90
2018-11-27T03:51:08.347Z,4.57
2018-11-27T03:53:38.653Z,5.13
2018-11-27T03:56:08.968Z,4.83
2018-11-27T03:58:39.037Z,4.17
2018-11-27T04:01:09.394Z,4.40
2018-11-27T04:03:39.780Z,4.33
2018-11-27T04:06:10.158Z,4.40
2018-11-27T04:08:40.361Z,4.53
2018-11-27T04:11:10.746Z,4.20
2018-11-27T04:13:40.927Z,4.53
2018-11-27T04:16:11.074Z,4.80
2018-11-27T04:18:41.410Z,5.10
2018-11-27T04:21:11.783Z,4.63
2018-11-27T04:23:42.070Z,5.80
2018-11-27T04:26:12.342Z,6.10
2018-11-27T04:28:42.720Z,5.90
2018-11-27T04:31:13.135Z,5.30
2018-11-27T04:33:43.403Z,5.37
2018-11-27T04:36:13.923Z,30.03
2018-11-27T04:38:44.140Z,5.80
2018-11-27T04:41:14.483Z,4.67
2018-11-27T04:43:44.586Z,6.70
2018-11-27T04:46:15.125Z,5.87
2018-11-27T04:48:45.592Z,7.40
2018-11-27T04:51:16.064Z,10.93
2018-11-27T04:53:46.534Z,9.77
2018-11-27T04:56:16.717Z,9.47
2018-11-27T04:58:46.914Z,10.53
2018-11-27T05:01:17.313Z,7.47
2018-11-27T05:03:47.605Z,7.83
2018-11-27T05:06:17.927Z,7.27
2018-11-27T05:08:48.210Z,5.80
2018-11-27T05:11:18.474Z,5.83
2018-11-27T05:13:48.808Z,5.63
2018-11-27T05:16:19.056Z,5.53
2018-11-27T05:18:49.330Z,37.03
2018-11-27T05:21:19.635Z,6.70
2018-11-27T05:23:49.861Z,6.07
2018-11-27T05:26:20.008Z,10.30
2018-11-27T05:28:50.364Z,9.50
2018-11-27T05:31:20.595Z,7.60
2018-11-27T05:33:50.829Z,7.70
2018-11-27T05:36:20.603Z,6.70
2018-11-27T05:38:50.907Z,6.23
2018-11-27T05:41:21.282Z,6.87
2018-11-27T05:43:51.544Z,5.23
2018-11-27T05:46:21.885Z,5.17
2018-11-27T05:48:52.254Z,5.13
2018-11-27T05:51:22.494Z,5.53
2018-11-27T05:53:52.796Z,6.70
2018-11-27T05:56:22.976Z,5.40
2018-11-27T05:58:53.418Z,6.33
2018-11-27T06:01:23.750Z,5.77
2018-11-27T06:03:54.088Z,5.30
2018-11-27T06:06:25.173Z,6.50
2018-11-27T06:08:55.510Z,8.23
2018-11-27T06:11:25.746Z,7.50
2018-11-27T06:13:56.178Z,9.03
2018-11-27T06:16:26.417Z,11.50
2018-11-27T06:18:56.508Z,22.20
2018-11-27T06:21:26.891Z,27.90
2018-11-27T06:23:57.061Z,28.30
2018-11-27T06:26:27.526Z,27.43
2018-11-27T06:28:57.920Z,19.43
2018-11-27T06:31:28.366Z,21.33
2018-11-27T06:33:59.148Z,23.70
2018-11-27T06:36:29.585Z,25.47
2018-11-27T06:38:59.884Z,23.33
2018-11-27T06:41:31.078Z,15.67
2018-11-27T06:44:02.477Z,13.70
2018-11-27T06:46:32.873Z,15.23
2018-11-27T06:49:03.055Z,20.37
2018-11-27T06:51:33.299Z,15.70
2018-11-27T06:54:03.657Z,14.50
2018-11-27T06:56:34.254Z,15.43
2018-11-27T06:59:04.719Z,14.90
2018-11-27T07:01:35.175Z,13.70
2018-11-27T07:04:05.204Z,15.00
2018-11-27T07:06:35.534Z,13.67
2018-11-27T07:09:08.919Z,11.80
2018-11-27T07:11:39.138Z,12.17
2018-11-27T07:14:09.419Z,12.37
2018-11-27T07:16:39.642Z,13.70
2018-11-27T07:19:10.115Z,14.17
2018-11-27T07:21:40.392Z,9.50
2018-11-27T07:24:10.828Z,10.97
2018-11-27T07:26:41.222Z,13.23
2018-11-27T07:29:11.604Z,15.13
2018-11-27T07:31:41.972Z,14.67
2018-11-27T07:34:12.205Z,17.07
2018-11-27T07:36:42.451Z,17.30
2018-11-27T07:39:12.892Z,15.93
2018-11-27T07:41:43.150Z,18.93
2018-11-27T07:44:14.031Z,20.23
2018-11-27T07:46:44.355Z,19.60
2018-11-27T07:49:14.483Z,19.80
2018-11-27T07:51:44.770Z,18.90
2018-11-27T07:54:15.141Z,18.77
2018-11-27T07:56:45.489Z,15.90
2018-11-27T07:59:16.025Z,12.40
2018-11-27T08:01:46.381Z,11.63
2018-11-27T08:04:16.508Z,11.70
2018-11-27T08:06:46.812Z,12.27
2018-11-27T08:09:17.186Z,12.57
2018-11-27T08:11:47.569Z,13.40
2018-11-27T08:14:18.041Z,12.43
2018-11-27T08:16:48.560Z,11.07
2018-11-27T08:19:18.821Z,10.23
2018-11-27T08:21:49.113Z,9.60
2018-11-27T08:24:19.492Z,11.27
2018-11-27T08:26:49.933Z,12.17
2018-11-27T08:29:20.372Z,12.53
2018-11-27T08:31:50.608Z,11.60
2018-11-27T08:34:21.065Z,12.63
2018-11-27T08:36:51.341Z,13.80
2018-11-27T08:39:21.596Z,13.80
2018-11-27T08:41:51.867Z,12.37
2018-11-27T08:44:22.156Z,13.10
2018-11-27T08:46:52.513Z,11.83
2018-11-27T08:49:22.835Z,10.60
2018-11-27T08:51:53.056Z,11.90
2018-11-27T08:54:24.529Z,11.57
2018-11-27T08:56:53.661Z,10.30
2018-11-27T08:59:24.097Z,11.17
2018-11-27T09:01:54.485Z,11.23
2018-11-27T09:04:24.862Z,11.53
2018-11-27T09:06:55.124Z,10.23
2018-11-27T09:09:25.472Z,9.90
2018-11-27T09:11:55.829Z,9.43
2018-11-27T09:14:26.263Z,9.00
2018-11-27T09:16:56.614Z,8.83
2018-11-27T09:19:27.046Z,10.47
2018-11-27T09:21:57.191Z,10.37
2018-11-27T09:24:27.591Z,11.03
2018-11-27T09:26:57.843Z,9.53
2018-11-27T09:29:28.245Z,8.90
2018-11-27T09:31:58.690Z,9.00
2018-11-27T09:34:29.125Z,9.23
2018-11-27T09:36:59.309Z,8.87
2018-11-27T09:39:29.496Z,8.53
2018-11-27T09:41:59.803Z,8.97
2018-11-27T09:44:30.185Z,9.30
2018-11-27T09:47:00.449Z,8.73
2018-11-27T09:49:30.874Z,9.13
2018-11-27T09:52:01.121Z,9.60
2018-11-27T09:54:31.369Z,9.13
2018-11-27T09:57:02.573Z,10.57
2018-11-27T09:59:32.813Z,17.03
2018-11-27T10:02:03.141Z,15.33
2018-11-27T10:04:33.589Z,17.20
2018-11-27T10:07:04.827Z,16.93
2018-11-27T10:09:34.251Z,17.33
2018-11-27T10:12:04.730Z,15.80
2018-11-27T10:14:35.099Z,15.93
2018-11-27T10:17:05.636Z,14.73
2018-11-27T10:19:36.044Z,15.40
2018-11-27T10:22:06.583Z,15.70
2018-11-27T10:24:36.969Z,15.90
2018-11-27T10:27:07.285Z,15.73
2018-11-27T10:29:37.642Z,13.93
2018-11-27T10:32:07.914Z,12.40
2018-11-27T10:34:38.543Z,10.87
2018-11-27T10:37:09.000Z,11.93
2018-11-27T10:39:39.188Z,9.97
2018-11-27T10:42:09.705Z,8.83
2018-11-27T10:44:40.113Z,8.60
2018-11-27T10:47:10.956Z,7.77
2018-11-27T10:49:41.156Z,8.67
2018-11-27T10:52:11.619Z,8.80
2018-11-27T10:54:42.184Z,8.80
2018-11-27T10:57:12.393Z,9.87
2018-11-27T10:59:42.789Z,10.33
2018-11-27T11:02:18.274Z,10.37
2018-11-27T11:04:48.624Z,10.40
2018-11-27T11:07:18.967Z,10.87
2018-11-27T11:09:49.447Z,10.67
2018-11-27T11:12:19.668Z,8.37
2018-11-27T11:14:49.893Z,8.87
2018-11-27T11:17:20.213Z,8.13
2018-11-27T11:19:50.489Z,8.80
2018-11-27T11:22:20.765Z,9.37
2018-11-27T11:24:51.065Z,9.60
2018-11-27T11:27:21.290Z,10.33
2018-11-27T11:29:51.669Z,11.90
2018-11-27T11:32:21.906Z,12.67
2018-11-27T11:34:52.291Z,13.00
2018-11-27T11:37:22.560Z,13.90
2018-11-27T11:39:52.829Z,15.23
2018-11-27T11:42:23.097Z,15.57
2018-11-27T11:44:53.420Z,17.70
2018-11-27T11:47:23.757Z,17.10
2018-11-27T11:49:54.198Z,17.27
2018-11-27T11:52:24.403Z,19.57
2018-11-27T11:54:54.744Z,18.87
2018-11-27T11:57:25.133Z,18.67
2018-11-27T11:59:55.619Z,20.33
2018-11-27T12:02:26.896Z,19.23
2018-11-27T12:04:56.939Z,22.50
2018-11-27T12:07:27.262Z,23.07
2018-11-27T12:09:57.681Z,22.70
2018-11-27T12:12:27.987Z,22.23
2018-11-27T12:14:58.350Z,17.83
2018-11-27T12:17:29.484Z,18.23
2018-11-27T12:19:59.746Z,16.43
2018-11-27T12:22:30.031Z,15.90
2018-11-27T12:25:00.474Z,15.83
2018-11-27T12:27:32.020Z,16.70
2018-11-27T12:30:02.632Z,16.10
2018-11-27T12:32:32.858Z,17.10
2018-11-27T12:35:03.192Z,18.63
2018-11-27T12:37:33.397Z,18.67
2018-11-27T12:40:03.844Z,19.40
2018-11-27T12:42:34.179Z,20.07
2018-11-27T12:45:04.556Z,20.30
2018-11-27T12:47:34.768Z,19.73
2018-11-27T12:50:06.065Z,20.87
2018-11-27T12:52:36.298Z,21.50
2018-11-27T12:55:08.541Z,20.83
2018-11-27T12:57:38.989Z,22.63
2018-11-27T13:00:13.889Z,21.97
2018-11-27T13:02:44.490Z,22.97
2018-11-27T13:05:19.047Z,28.73
2018-11-27T13:07:49.576Z,26.90
2018-11-27T13:10:19.957Z,25.37
2018-11-27T13:12:50.789Z,28.47
2018-11-27T13:15:21.685Z,24.70
2018-11-27T13:17:52.819Z,23.47
2018-11-27T13:20:23.047Z,22.50
2018-11-27T13:22:53.472Z,22.67
2018-11-27T13:25:24.976Z,22.37
2018-11-27T13:27:56.202Z,24.90
2018-11-27T13:30:50.168Z,21.40
2018-11-27T13:33:22.386Z,19.03
2018-11-27T13:35:52.729Z,19.50
2018-11-27T13:38:23.114Z,18.90
2018-11-27T13:40:53.506Z,19.60
2018-11-27T13:43:25.978Z,21.57
2018-11-27T13:45:57.027Z,20.83
2018-11-27T13:48:27.344Z,20.43
2018-11-27T13:50:57.643Z,21.93
2018-11-27T13:53:27.942Z,23.50
2018-11-27T13:55:58.407Z,24.47
2018-11-27T13:58:28.690Z,22.33
2018-11-27T14:00:59.102Z,23.03
2018-11-27T14:03:29.338Z,19.93
2018-11-27T14:05:59.837Z,20.73
2018-11-27T14:08:30.213Z,21.30
2018-11-27T14:11:00.641Z,20.33
2018-11-27T14:13:30.883Z,21.00
2018-11-27T14:16:01.399Z,19.23
2018-11-27T14:18:31.762Z,17.77
2018-11-27T14:21:02.138Z,16.33
2018-11-27T14:23:32.341Z,16.57
2018-11-27T14:26:02.478Z,16.17
2018-11-27T14:28:32.722Z,15.53
2018-11-27T14:31:02.924Z,20.67
2018-11-27T14:33:33.180Z,16.23
2018-11-27T14:36:03.446Z,16.27
2018-11-27T14:38:33.877Z,16.63
2018-11-27T14:41:04.199Z,14.90
2018-11-27T14:43:34.688Z,16.57
2018-11-27T14:46:05.301Z,15.90
2018-11-27T14:48:36.430Z,16.87
2018-11-27T14:51:06.857Z,10.60
2018-11-27T14:53:37.652Z,9.77
2018-11-27T14:56:07.893Z,9.90
2018-11-27T14:58:38.395Z,9.57
2018-11-27T15:01:08.577Z,8.33
2018-11-27T15:03:38.863Z,7.17
2018-11-27T15:06:09.153Z,7.67
2018-11-27T15:08:39.445Z,6.40
2018-11-27T15:11:12.664Z,6.07
2018-11-27T15:13:40.796Z,6.47
2018-11-27T15:16:11.189Z,7.23
2018-11-27T15:18:41.494Z,5.73
2018-11-27T15:21:11.882Z,5.47
2018-11-27T15:23:42.179Z,5.70
2018-11-27T15:26:12.402Z,4.93
2018-11-27T15:28:42.807Z,5.37
2018-11-27T15:31:13.241Z,5.00
2018-11-27T15:33:43.577Z,5.70
2018-11-27T15:36:13.903Z,4.10
2018-11-27T15:38:44.330Z,4.50
2018-11-27T15:41:14.688Z,4.60
2018-11-27T15:43:44.928Z,4.50
2018-11-27T15:46:15.121Z,5.10
2018-11-27T15:48:45.268Z,6.30
2018-11-27T15:51:15.491Z,4.20
2018-11-27T15:53:45.878Z,4.67
2018-11-27T15:56:16.176Z,3.90
2018-11-27T15:58:46.579Z,4.20
2018-11-27T16:01:16.778Z,4.00
2018-11-27T16:03:47.158Z,4.90
2018-11-27T16:06:18.127Z,7.40
2018-11-27T16:08:48.494Z,5.33
2018-11-27T16:11:18.906Z,5.97
2018-11-27T16:13:55.249Z,6.53
2018-11-27T16:16:19.674Z,6.23
2018-11-27T16:18:49.988Z,5.77
2018-11-27T16:21:20.318Z,5.93
2018-11-27T16:23:50.710Z,5.70
2018-11-27T16:26:20.990Z,5.50
2018-11-27T16:28:51.468Z,5.77
2018-11-27T16:31:21.941Z,5.77
2018-11-27T16:33:52.430Z,6.57
2018-11-27T16:36:22.822Z,5.93
2018-11-27T16:38:53.154Z,7.00
2018-11-27T16:41:23.358Z,6.60
2018-11-27T16:43:53.717Z,6.80
2018-11-27T16:46:24.129Z,6.07
2018-11-27T16:48:54.587Z,5.30
2018-11-27T16:51:24.743Z,5.53
2018-11-27T16:53:54.966Z,4.93
2018-11-27T16:56:25.508Z,5.03
2018-11-27T16:58:55.832Z,5.10
2018-11-27T17:01:26.290Z,4.80
2018-11-27T17:03:56.624Z,6.80
2018-11-27T17:06:26.901Z,5.90
2018-11-27T17:08:57.098Z,6.40
2018-11-27T17:11:27.347Z,8.30
2018-11-27T17:13:57.584Z,8.83
2018-11-27T17:16:27.960Z,8.60
2018-11-27T17:18:58.054Z,8.80
2018-11-27T17:21:28.046Z,9.03
2018-11-27T17:23:58.440Z,11.97
2018-11-27T17:26:28.565Z,11.90
2018-11-27T17:28:58.937Z,11.73
2018-11-27T17:31:29.317Z,10.80
2018-11-27T17:34:02.600Z,8.57
2018-11-27T17:36:32.821Z,9.27
2018-11-27T17:39:03.436Z,8.57
2018-11-27T17:41:33.811Z,7.33
2018-11-27T17:44:04.202Z,8.13
2018-11-27T17:46:34.948Z,7.77
2018-11-27T17:49:05.352Z,7.70
2018-11-27T17:51:35.657Z,7.60
2018-11-27T17:54:06.034Z,7.23
2018-11-27T17:56:36.602Z,7.60
2018-11-27T17:59:07.049Z,7.00
2018-11-27T18:01:37.576Z,7.47
2018-11-27T18:04:08.026Z,6.95
2018-11-27T18:06:38.502Z,7.50
2018-11-27T18:09:09.744Z,6.93
2018-11-27T18:11:40.326Z,7.50
2018-11-27T18:14:10.722Z,5.07
2018-11-27T18:16:40.911Z,7.03
2018-11-27T18:19:11.394Z,6.90
2018-11-27T18:21:42.415Z,6.20
2018-11-27T18:24:12.762Z,6.00
2018-11-27T18:26:43.087Z,5.30
2018-11-27T18:29:13.651Z,5.00
2018-11-27T18:31:43.908Z,5.00
2018-11-27T18:34:14.518Z,4.27
2018-11-27T18:36:44.830Z,4.30
2018-11-27T18:39:15.326Z,4.37
2018-11-27T18:41:45.638Z,4.40
2018-11-27T18:44:16.362Z,5.57
2018-11-27T18:46:46.649Z,4.73
2018-11-27T18:49:16.825Z,4.33
2018-11-27T18:51:46.964Z,4.70
2018-11-27T18:54:17.283Z,3.83
2018-11-27T18:56:47.638Z,4.63
2018-11-27T18:59:17.989Z,4.40
2018-11-27T19:01:48.462Z,5.20
2018-11-27T19:04:19.550Z,6.23
2018-11-27T19:06:49.919Z,5.60
2018-11-27T19:09:20.470Z,4.80
2018-11-27T19:11:51.037Z,4.70
2018-11-27T19:14:21.443Z,4.37
2018-11-27T19:16:51.878Z,4.50
2018-11-27T19:19:22.406Z,4.50
2018-11-27T19:21:53.518Z,4.23
2018-11-27T19:24:23.928Z,4.53
2018-11-27T19:26:54.402Z,4.90
2018-11-27T19:29:24.730Z,4.73
2018-11-27T19:31:55.254Z,4.70
2018-11-27T19:34:25.691Z,4.63
2018-11-27T19:36:55.931Z,4.33
2018-11-27T19:39:26.253Z,4.90
2018-11-27T19:41:56.748Z,4.17
2018-11-27T19:44:27.190Z,4.90
2018-11-27T19:46:57.637Z,4.33
2018-11-27T19:49:28.296Z,4.00
2018-11-27T19:51:58.737Z,3.37
2018-11-27T19:54:29.158Z,4.30
2018-11-27T19:57:00.210Z,3.30
2018-11-27T19:59:30.568Z,3.50
2018-11-27T20:02:00.806Z,3.97
2018-11-27T20:04:31.268Z,3.10
2018-11-27T20:07:08.038Z,3.50
2018-11-27T20:09:38.479Z,5.50
2018-11-27T20:12:08.828Z,7.83
2018-11-27T20:14:39.288Z,4.27
2018-11-27T20:17:09.591Z,5.50
2018-11-27T20:19:39.841Z,4.47
2018-11-27T20:22:10.015Z,4.37
2018-11-27T20:24:40.328Z,3.97
2018-11-27T20:27:10.557Z,4.10
2018-11-27T20:29:40.911Z,3.57
2018-11-27T20:32:11.419Z,4.03
2018-11-27T20:34:41.737Z,3.60
2018-11-27T20:37:12.165Z,3.60
2018-11-27T20:39:42.567Z,4.17
2018-11-27T20:42:12.781Z,3.90
2018-11-27T20:44:43.119Z,4.27
2018-11-27T20:47:13.471Z,3.67
2018-11-27T20:49:43.799Z,3.83
2018-11-27T20:52:14.108Z,4.87
2018-11-27T20:54:44.349Z,3.63
2018-11-27T20:57:15.396Z,3.20
2018-11-27T20:59:46.715Z,2.47
2018-11-27T21:02:17.029Z,2.87
2018-11-27T21:04:47.511Z,2.53
2018-11-27T21:07:17.968Z,2.40
2018-11-27T21:09:48.368Z,2.43
2018-11-27T21:12:18.805Z,2.17
2018-11-27T21:14:49.302Z,2.17
2018-11-27T21:17:19.790Z,2.30
2018-11-27T21:19:50.240Z,2.70
2018-11-27T21:22:20.474Z,2.30
2018-11-27T21:24:50.861Z,2.23
2018-11-27T21:27:21.258Z,2.60
2018-11-27T21:29:51.477Z,2.60
2018-11-27T21:32:21.986Z,2.83
2018-11-27T21:34:53.188Z,2.30
2018-11-27T21:37:22.806Z,2.20
2018-11-27T21:39:52.885Z,3.00
2018-11-27T21:42:23.513Z,3.37
2018-11-27T21:44:53.757Z,2.80
2018-11-27T21:47:24.477Z,2.83
2018-11-27T21:49:54.737Z,2.90
2018-11-27T21:52:25.448Z,2.60
2018-11-27T21:54:55.667Z,2.87
2018-11-27T21:57:25.859Z,2.83
2018-11-27T21:59:56.252Z,3.03
2018-11-27T22:02:26.708Z,2.90
2018-11-27T22:04:56.886Z,3.10
2018-11-27T22:07:27.167Z,3.23
2018-11-27T22:09:57.446Z,3.33
2018-11-27T22:12:27.798Z,3.70
2018-11-27T22:14:58.297Z,4.20
2018-11-27T22:17:28.671Z,3.80
2018-11-27T22:19:59.147Z,3.70
2018-11-27T22:22:29.529Z,4.33
2018-11-27T22:24:59.808Z,4.57
2018-11-27T22:27:30.202Z,5.20
2018-11-27T22:30:00.518Z,5.43
2018-11-27T22:32:30.822Z,6.73
2018-11-27T22:35:01.186Z,7.17
2018-11-27T22:37:31.462Z,6.77
2018-11-27T22:40:01.851Z,6.50
2018-11-27T22:42:32.213Z,5.63
2018-11-27T22:45:02.349Z,5.37
2018-11-27T22:47:32.658Z,5.10
2018-11-27T22:50:03.433Z,4.50
2018-11-27T22:52:33.665Z,3.50
2018-11-27T22:55:03.790Z,3.20
2018-11-27T22:57:33.942Z,3.27
2018-11-27T23:00:04.434Z,2.93
2018-11-27T23:02:34.727Z,3.07
2018-11-27T23:05:05.381Z,2.90
2018-11-27T23:07:41.566Z,2.70
2018-11-27T23:10:12.754Z,2.57
2018-11-27T23:12:43.157Z,2.70
2018-11-27T23:15:16.455Z,2.70
2018-11-27T23:17:46.834Z,2.80
2018-11-27T23:20:18.132Z,2.67
2018-11-27T23:22:48.606Z,2.80
2018-11-27T23:25:19.944Z,2.60
2018-11-27T23:27:50.110Z,4.33
2018-11-27T23:30:21.957Z,5.53
2018-11-27T23:32:52.388Z,3.90
2018-11-27T23:35:22.821Z,3.73
2018-11-27T23:37:53.310Z,3.00
2018-11-27T23:40:23.804Z,2.40
2018-11-27T23:42:54.853Z,2.50
2018-11-27T23:45:25.058Z,2.73
2018-11-27T23:47:55.269Z,2.30
2018-11-27T23:50:25.677Z,2.30
2018-11-27T23:52:55.917Z,2.20
2018-11-27T23:55:26.331Z,2.10
2018-11-27T23:57:56.751Z,2.40
